Vinings, Georgia
Current Conditions -  °F | °C
As of 5:58 PM on Tuesday 27 Jan 2015 (Local Time) from KMGE Reporting Station
Scattered Clouds Scattered Clouds  
Wind Chill: 35°   Ceiling: Unl
Heat Index: 42°   Visibility: 10mi
Dew Point: 31°   Wind: 13mph
Humidity: 65%   Direction: 340°NNW
Pressure: 30.03"   Gusts: NA
Location:  33.87°N, 84.47°W
Report Text: KMGE 272258Z 34011KT 10SM SCT038 06/00 A3003 RMK AO2A SLP177 T00571005 $
Loading
Personal Weather Stations






























Interactive Weather Map New forecast layout! Learn more

10-Day Weather Forecast

Advertisements
Track Severe Weather on mobile